sensor_id;sensor_type;location;lat;lon;timestamp;pressure;altitude;pressure_sealevel;temperature;humidity
6150;BME280;3106;42.670;23.318;2024-03-02T00:01:47;93815.44;;;8.53;100.00
6150;BME280;3106;42.670;23.318;2024-03-02T00:04:15;93863.34;;;8.80;100.00
6150;BME280;3106;42.670;23.318;2024-03-02T00:06:42;93859.91;;;8.80;100.00
6150;BME280;3106;42.670;23.318;2024-03-02T00:09:12;93869.81;;;8.79;100.00
6150;BME280;3106;42.670;23.318;2024-03-02T00:11:43;93858.78;;;8.81;100.00
6150;BME280;3106;42.670;23.318;2024-03-02T00:14:14;93864.22;;;8.84;100.00
6150;BME280;3106;42.670;23.318;2024-03-02T00:16:42;93857.75;;;8.85;100.00
6150;BME280;3106;42.670;23.318;2024-03-02T00:19:09;93860.00;;;8.83;100.00
6150;BME280;3106;42.670;23.318;2024-03-02T00:21:37;93863.09;;;8.85;100.00
6150;BME280;3106;42.670;23.318;2024-03-02T00:24:12;93858.44;;;8.82;100.00
6150;BME280;3106;42.670;23.318;2024-03-02T00:26:48;93856.91;;;8.81;100.00
6150;BME280;3106;42.670;23.318;2024-03-02T00:29:17;93852.34;;;8.82;100.00
6150;BME280;3106;42.670;23.318;2024-03-02T00:31:45;93853.88;;;8.83;100.00
6150;BME280;3106;42.670;23.318;2024-03-02T00:34:14;93852.34;;;8.82;100.00
6150;BME280;3106;42.670;23.318;2024-03-02T00:36:41;93850.09;;;8.84;100.00
6150;BME280;3106;42.670;23.318;2024-03-02T00:39:12;93837.72;;;8.76;100.00
6150;BME280;3106;42.670;23.318;2024-03-02T00:41:41;93842.94;;;8.88;100.00
6150;BME280;3106;42.670;23.318;2024-03-02T00:44:10;93839.00;;;8.82;100.00
6150;BME280;3106;42.670;23.318;2024-03-02T00:46:40;93833.59;;;8.78;100.00
6150;BME280;3106;42.670;23.318;2024-03-02T00:49:13;93843.31;;;8.86;100.00
6150;BME280;3106;42.670;23.318;2024-03-02T00:51:47;93837.88;;;8.83;100.00
6150;BME280;3106;42.670;23.318;2024-03-02T00:54:14;93841.50;;;8.90;100.00
6150;BME280;3106;42.670;23.318;2024-03-02T00:56:43;93841.50;;;8.90;100.00
6150;BME280;3106;42.670;23.318;2024-03-02T00:59:12;93845.81;;;8.95;100.00
6150;BME280;3106;42.670;23.318;2024-03-02T01:01:40;93830.31;;;8.85;100.00
6150;BME280;3106;42.670;23.318;2024-03-02T01:04:07;93835.81;;;8.92;100.00
6150;BME280;3106;42.670;23.318;2024-03-02T01:06:35;93845.88;;;8.98;100.00
6150;BME280;3106;42.670;23.318;2024-03-02T01:09:02;93851.22;;;8.98;100.00
6150;BME280;3106;42.670;23.318;2024-03-02T01:11:29;93831.16;;;8.89;100.00
6150;BME280;3106;42.670;23.318;2024-03-02T01:13:56;93844.84;;;9.02;100.00
6150;BME280;3106;42.670;23.318;2024-03-02T01:16:23;93838.81;;;9.05;100.00
6150;BME280;3106;42.670;23.318;2024-03-02T01:18:51;93831.16;;;9.04;100.00
6150;BME280;3106;42.670;23.318;2024-03-02T01:21:18;93829.72;;;9.06;100.00
6150;BME280;3106;42.670;23.318;2024-03-02T01:23:45;93815.09;;;9.00;100.00
6150;BME280;3106;42.670;23.318;2024-03-02T01:26:13;93826.25;;;9.06;100.00
6150;BME280;3106;42.670;23.318;2024-03-02T01:28:52;93796.28;;;8.94;100.00
6150;BME280;3106;42.670;23.318;2024-03-02T01:31:20;93815.94;;;9.04;100.00
6150;BME280;3106;42.670;23.318;2024-03-02T01:33:46;93812.50;;;9.04;100.00
6150;BME280;3106;42.670;23.318;2024-03-02T01:36:14;93811.75;;;9.03;100.00
6150;BME280;3106;42.670;23.318;2024-03-02T01:38:41;93804.88;;;9.02;100.00
6150;BME280;3106;42.670;23.318;2024-03-02T01:41:08;93809.84;;;9.04;100.00
6150;BME280;3106;42.670;23.318;2024-03-02T01:43:35;93820.84;;;9.02;100.00
6150;BME280;3106;42.670;23.318;2024-03-02T01:46:01;93816.28;;;9.03;100.00
6150;BME280;3106;42.670;23.318;2024-03-02T01:48:28;93817.50;;;9.05;100.00
6150;BME280;3106;42.670;23.318;2024-03-02T01:50:55;93816.44;;;9.10;100.00
6150;BME280;3106;42.670;23.318;2024-03-02T01:53:23;93810.88;;;9.15;100.00
6150;BME280;3106;42.670;23.318;2024-03-02T01:55:50;93795.91;;;9.10;100.00
6150;BME280;3106;42.670;23.318;2024-03-02T01:58:17;93809.91;;;9.23;100.00
6150;BME280;3106;42.670;23.318;2024-03-02T02:00:44;93806.09;;;9.24;100.00
6150;BME280;3106;42.670;23.318;2024-03-02T02:03:18;93802.22;;;9.21;100.00
6150;BME280;3106;42.670;23.318;2024-03-02T02:05:45;93793.22;;;9.10;100.00
6150;BME280;3106;42.670;23.318;2024-03-02T02:08:13;93799.06;;;9.16;100.00
6150;BME280;3106;42.670;23.318;2024-03-02T02:10:45;93806.72;;;9.17;100.00
6150;BME280;3106;42.670;23.318;2024-03-02T02:13:13;93808.53;;;9.13;100.00
6150;BME280;3106;42.670;23.318;2024-03-02T02:15:40;93797.13;;;8.98;100.00
6150;BME280;3106;42.670;23.318;2024-03-02T02:18:11;93808.28;;;9.03;100.00
6150;BME280;3106;42.670;23.318;2024-03-02T02:20:38;93805.97;;;9.01;100.00
6150;BME280;3106;42.670;23.318;2024-03-02T02:23:06;93815.53;;;9.02;100.00
6150;BME280;3106;42.670;23.318;2024-03-02T02:25:35;93821.03;;;8.94;100.00
6150;BME280;3106;42.670;23.318;2024-03-02T02:28:02;93819.22;;;8.98;100.00
6150;BME280;3106;42.670;23.318;2024-03-02T02:30:30;93813.44;;;9.11;100.00
6150;BME280;3106;42.670;23.318;2024-03-02T02:32:59;93818.50;;;9.16;100.00
6150;BME280;3106;42.670;23.318;2024-03-02T02:35:26;93816.00;;;9.23;100.00
6150;BME280;3106;42.670;23.318;2024-03-02T02:37:54;93808.50;;;9.29;100.00
6150;BME280;3106;42.670;23.318;2024-03-02T02:40:25;93804.81;;;9.33;100.00
6150;BME280;3106;42.670;23.318;2024-03-02T02:42:54;93812.00;;;9.33;100.00
6150;BME280;3106;42.670;23.318;2024-03-02T02:45:22;93808.94;;;9.31;100.00
6150;BME280;3106;42.670;23.318;2024-03-02T02:47:50;93809.25;;;9.29;100.00
6150;BME280;3106;42.670;23.318;2024-03-02T02:50:20;93820.19;;;9.24;100.00
6150;BME280;3106;42.670;23.318;2024-03-02T02:52:46;93799.41;;;9.14;100.00
6150;BME280;3106;42.670;23.318;2024-03-02T02:55:13;93804.47;;;9.19;100.00
6150;BME280;3106;42.670;23.318;2024-03-02T02:57:45;93808.78;;;9.24;100.00
6150;BME280;3106;42.670;23.318;2024-03-02T03:00:14;93815.38;;;9.30;100.00
6150;BME280;3106;42.670;23.318;2024-03-02T03:02:41;93808.59;;;9.32;100.00
6150;BME280;3106;42.670;23.318;2024-03-02T03:05:09;93811.50;;;9.27;100.00
6150;BME280;3106;42.670;23.318;2024-03-02T03:07:37;93811.88;;;9.26;100.00
6150;BME280;3106;42.670;23.318;2024-03-02T03:10:06;93798.91;;;9.09;100.00
6150;BME280;3106;42.670;23.318;2024-03-02T03:12:33;93808.25;;;9.18;100.00
6150;BME280;3106;42.670;23.318;2024-03-02T03:15:02;93814.22;;;9.12;100.00
6150;BME280;3106;42.670;23.318;2024-03-02T03:17:29;93808.41;;;8.91;100.00
6150;BME280;3106;42.670;23.318;2024-03-02T03:19:57;93813.56;;;8.99;100.00
6150;BME280;3106;42.670;23.318;2024-03-02T03:22:23;93793.63;;;8.78;100.00
6150;BME280;3106;42.670;23.318;2024-03-02T03:24:51;93816.81;;;8.93;100.00
6150;BME280;3106;42.670;23.318;2024-03-02T03:27:18;93806.06;;;8.90;100.00
6150;BME280;3106;42.670;23.318;2024-03-02T03:29:46;93804.19;;;8.90;100.00
6150;BME280;3106;42.670;23.318;2024-03-02T03:32:19;93800.81;;;8.93;100.00
6150;BME280;3106;42.670;23.318;2024-03-02T03:34:49;93816.66;;;9.01;100.00
6150;BME280;3106;42.670;23.318;2024-03-02T03:37:18;93816.38;;;9.06;100.00
6150;BME280;3106;42.670;23.318;2024-03-02T03:39:48;93817.84;;;9.04;100.00
6150;BME280;3106;42.670;23.318;2024-03-02T03:42:19;93818.09;;;8.99;100.00
6150;BME280;3106;42.670;23.318;2024-03-02T03:44:47;93804.53;;;8.89;100.00
6150;BME280;3106;42.670;23.318;2024-03-02T03:47:17;93820.44;;;9.00;100.00
6150;BME280;3106;42.670;23.318;2024-03-02T03:49:44;93816.97;;;9.00;100.00
6150;BME280;3106;42.670;23.318;2024-03-02T03:52:11;93817.06;;;9.03;100.00
6150;BME280;3106;42.670;23.318;2024-03-02T03:54:39;93807.09;;;9.00;100.00
6150;BME280;3106;42.670;23.318;2024-03-02T03:57:08;93794.72;;;8.93;100.00
6150;BME280;3106;42.670;23.318;2024-03-02T03:59:35;93709.53;;;8.46;100.00
6150;BME280;3106;42.670;23.318;2024-03-02T04:02:03;93807.69;;;9.09;100.00
6150;BME280;3106;42.670;23.318;2024-03-02T04:04:31;93812.59;;;9.07;100.00
6150;BME280;3106;42.670;23.318;2024-03-02T04:06:59;93800.91;;;9.12;100.00
6150;BME280;3106;42.670;23.318;2024-03-02T04:09:26;93811.44;;;9.24;100.00
6150;BME280;3106;42.670;23.318;2024-03-02T04:11:53;93820.19;;;9.24;100.00
6150;BME280;3106;42.670;23.318;2024-03-02T04:14:20;93810.22;;;9.21;100.00
6150;BME280;3106;42.670;23.318;2024-03-02T04:16:47;93810.66;;;9.23;100.00
6150;BME280;3106;42.670;23.318;2024-03-02T04:19:14;93815.06;;;9.16;100.00
6150;BME280;3106;42.670;23.318;2024-03-02T04:21:42;93818.06;;;9.14;100.00
6150;BME280;3106;42.670;23.318;2024-03-02T04:24:09;93800.28;;;9.03;100.00
6150;BME280;3106;42.670;23.318;2024-03-02T04:26:35;93814.13;;;9.08;100.00
6150;BME280;3106;42.670;23.318;2024-03-02T04:29:06;93817.22;;;9.10;100.00
6150;BME280;3106;42.670;23.318;2024-03-02T04:31:33;93816.53;;;9.13;100.00
6150;BME280;3106;42.670;23.318;2024-03-02T04:34:00;93822.97;;;9.12;100.00
6150;BME280;3106;42.670;23.318;2024-03-02T04:36:26;93822.03;;;9.20;100.00
6150;BME280;3106;42.670;23.318;2024-03-02T04:38:55;93827.78;;;9.22;100.00
6150;BME280;3106;42.670;23.318;2024-03-02T04:41:22;93824.00;;;9.08;100.00
6150;BME280;3106;42.670;23.318;2024-03-02T04:43:49;93828.75;;;9.14;100.00
6150;BME280;3106;42.670;23.318;2024-03-02T04:46:16;93828.41;;;9.16;100.00
6150;BME280;3106;42.670;23.318;2024-03-02T04:48:43;93831.84;;;9.16;100.00
6150;BME280;3106;42.670;23.318;2024-03-02T04:51:11;93822.97;;;9.12;100.00
6150;BME280;3106;42.670;23.318;2024-03-02T04:53:38;93826.34;;;9.09;100.00
6150;BME280;3106;42.670;23.318;2024-03-02T04:56:07;93827.47;;;9.08;100.00
6150;BME280;3106;42.670;23.318;2024-03-02T04:58:52;93825.50;;;9.05;100.00
6150;BME280;3106;42.670;23.318;2024-03-02T05:01:19;93816.91;;;8.97;100.00
6150;BME280;3106;42.670;23.318;2024-03-02T05:03:46;93830.03;;;9.05;100.00
6150;BME280;3106;42.670;23.318;2024-03-02T05:06:12;93832.66;;;9.01;100.00
6150;BME280;3106;42.670;23.318;2024-03-02T05:08:39;93832.03;;;8.93;100.00
6150;BME280;3106;42.670;23.318;2024-03-02T05:11:12;93832.56;;;8.83;100.00
6150;BME280;3106;42.670;23.318;2024-03-02T05:13:57;93818.63;;;8.58;100.00
6150;BME280;3106;42.670;23.318;2024-03-02T05:16:24;93826.03;;;8.49;100.00
6150;BME280;3106;42.670;23.318;2024-03-02T05:18:51;93848.63;;;8.55;100.00
6150;BME280;3106;42.670;23.318;2024-03-02T05:21:20;93841.06;;;8.42;100.00
6150;BME280;3106;42.670;23.318;2024-03-02T05:23:47;93844.28;;;8.35;100.00
6150;BME280;3106;42.670;23.318;2024-03-02T05:26:15;93846.03;;;8.28;100.00
6150;BME280;3106;42.670;23.318;2024-03-02T05:28:42;93834.06;;;8.22;100.00
6150;BME280;3106;42.670;23.318;2024-03-02T05:31:10;93843.50;;;8.19;100.00
6150;BME280;3106;42.670;23.318;2024-03-02T05:33:37;93854.59;;;8.21;100.00
6150;BME280;3106;42.670;23.318;2024-03-02T05:36:04;93854.47;;;8.18;100.00
6150;BME280;3106;42.670;23.318;2024-03-02T05:38:31;93832.25;;;7.98;100.00
6150;BME280;3106;42.670;23.318;2024-03-02T05:40:58;93862.69;;;8.13;100.00
6150;BME280;3106;42.670;23.318;2024-03-02T05:43:26;93860.38;;;8.11;100.00
6150;BME280;3106;42.670;23.318;2024-03-02T05:45:52;93866.81;;;8.10;100.00
6150;BME280;3106;42.670;23.318;2024-03-02T05:48:19;93871.78;;;8.12;100.00
6150;BME280;3106;42.670;23.318;2024-03-02T05:50:46;93866.81;;;8.10;100.00
6150;BME280;3106;42.670;23.318;2024-03-02T05:53:13;93861.13;;;8.12;100.00
6150;BME280;3106;42.670;23.318;2024-03-02T05:55:41;93868.44;;;8.15;100.00
6150;BME280;3106;42.670;23.318;2024-03-02T05:58:08;93873.75;;;8.27;100.00
6150;BME280;3106;42.670;23.318;2024-03-02T06:00:49;93869.91;;;8.40;100.00
6150;BME280;3106;42.670;23.318;2024-03-02T06:03:16;93855.69;;;8.20;100.00
6150;BME280;3106;42.670;23.318;2024-03-02T06:05:42;93868.13;;;8.44;100.00
6150;BME280;3106;42.670;23.318;2024-03-02T06:08:09;93860.66;;;8.49;100.00
6150;BME280;3106;42.670;23.318;2024-03-02T06:10:35;93872.19;;;8.53;100.00
6150;BME280;3106;42.670;23.318;2024-03-02T06:13:03;93860.22;;;8.47;100.00
6150;BME280;3106;42.670;23.318;2024-03-02T06:15:30;93865.81;;;8.42;100.00
6150;BME280;3106;42.670;23.318;2024-03-02T06:17:59;93877.75;;;8.48;100.00
6150;BME280;3106;42.670;23.318;2024-03-02T06:20:26;93876.72;;;8.53;100.00
6150;BME280;3106;42.670;23.318;2024-03-02T06:22:56;93877.59;;;8.57;100.00
6150;BME280;3106;42.670;23.318;2024-03-02T06:25:22;93876.56;;;8.61;100.00
6150;BME280;3106;42.670;23.318;2024-03-02T06:27:49;93883.19;;;8.67;100.00
6150;BME280;3106;42.670;23.318;2024-03-02T06:30:16;93880.53;;;8.67;100.00
6150;BME280;3106;42.670;23.318;2024-03-02T06:32:43;93886.63;;;8.68;100.00
6150;BME280;3106;42.670;23.318;2024-03-02T06:35:12;93881.31;;;8.68;100.00
6150;BME280;3106;42.670;23.318;2024-03-02T06:37:39;93887.31;;;8.65;100.00
6150;BME280;3106;42.670;23.318;2024-03-02T06:40:07;93879.06;;;8.54;100.00
6150;BME280;3106;42.670;23.318;2024-03-02T06:42:34;93885.34;;;8.62;100.00
6150;BME280;3106;42.670;23.318;2024-03-02T06:45:02;93891.34;;;8.59;100.00
6150;BME280;3106;42.670;23.318;2024-03-02T06:47:29;93893.59;;;8.57;100.00
6150;BME280;3106;42.670;23.318;2024-03-02T06:49:56;93886.50;;;8.49;100.00
6150;BME280;3106;42.670;23.318;2024-03-02T06:52:25;93896.59;;;8.55;100.00
6150;BME280;3106;42.670;23.318;2024-03-02T06:54:52;93896.59;;;8.55;100.00
6150;BME280;3106;42.670;23.318;2024-03-02T06:57:18;93895.78;;;8.55;100.00
6150;BME280;3106;42.670;23.318;2024-03-02T06:59:47;93899.25;;;8.55;100.00
6150;BME280;3106;42.670;23.318;2024-03-02T07:02:15;93895.47;;;8.56;100.00
6150;BME280;3106;42.670;23.318;2024-03-02T07:04:42;93878.19;;;8.50;100.00
6150;BME280;3106;42.670;23.318;2024-03-02T07:07:10;93903.06;;;8.70;100.00
6150;BME280;3106;42.670;23.318;2024-03-02T07:09:39;93897.19;;;8.64;100.00
6150;BME280;3106;42.670;23.318;2024-03-02T07:12:11;93898.59;;;8.74;100.00
6150;BME280;3106;42.670;23.318;2024-03-02T07:14:37;93911.22;;;8.77;100.00
6150;BME280;3106;42.670;23.318;2024-03-02T07:17:22;93901.00;;;8.79;100.00
6150;BME280;3106;42.670;23.318;2024-03-02T07:19:51;93912.88;;;8.81;100.00
6150;BME280;3106;42.670;23.318;2024-03-02T07:22:19;93909.41;;;8.81;100.00
6150;BME280;3106;42.670;23.318;2024-03-02T07:24:47;93904.34;;;8.76;100.00
6150;BME280;3106;42.670;23.318;2024-03-02T07:27:15;93908.72;;;8.84;100.00
6150;BME280;3106;42.670;23.318;2024-03-02T07:29:42;93916.41;;;8.85;100.00
6150;BME280;3106;42.670;23.318;2024-03-02T07:32:10;93907.19;;;8.83;100.00
6150;BME280;3106;42.670;23.318;2024-03-02T07:34:36;93910.91;;;8.78;100.00
6150;BME280;3106;42.670;23.318;2024-03-02T07:37:04;93894.03;;;8.59;100.00
6150;BME280;3106;42.670;23.318;2024-03-02T07:39:34;93919.72;;;8.67;100.00
6150;BME280;3106;42.670;23.318;2024-03-02T07:42:05;93919.72;;;8.67;100.00
6150;BME280;3106;42.670;23.318;2024-03-02T07:44:33;93916.63;;;8.65;100.00
6150;BME280;3106;42.670;23.318;2024-03-02T07:47:00;93917.31;;;8.62;100.00
6150;BME280;3106;42.670;23.318;2024-03-02T07:49:27;93906.56;;;8.58;100.00
6150;BME280;3106;42.670;23.318;2024-03-02T07:51:54;93924.91;;;8.75;100.00
6150;BME280;3106;42.670;23.318;2024-03-02T07:54:21;93924.97;;;8.79;100.00
6150;BME280;3106;42.670;23.318;2024-03-02T07:56:48;93933.84;;;8.83;100.00
6150;BME280;3106;42.670;23.318;2024-03-02T07:59:18;93926.38;;;8.88;100.00
6150;BME280;3106;42.670;23.318;2024-03-02T08:01:54;93935.66;;;8.94;100.00
6150;BME280;3106;42.670;23.318;2024-03-02T08:04:21;93917.41;;;8.81;100.00
6150;BME280;3106;42.670;23.318;2024-03-02T08:06:50;93917.59;;;8.88;100.00
6150;BME280;3106;42.670;23.318;2024-03-02T08:09:18;93895.81;;;8.70;100.00
6150;BME280;3106;42.670;23.318;2024-03-02T08:11:46;93937.75;;;9.00;100.00
6150;BME280;3106;42.670;23.318;2024-03-02T08:14:12;93939.28;;;9.01;100.00
6150;BME280;3106;42.670;23.318;2024-03-02T08:16:41;93920.25;;;8.88;100.00
6150;BME280;3106;42.670;23.318;2024-03-02T08:19:08;93935.50;;;9.02;100.00
6150;BME280;3106;42.670;23.318;2024-03-02T08:21:37;93940.56;;;9.07;100.00
6150;BME280;3106;42.670;23.318;2024-03-02T08:24:04;93943.78;;;9.13;100.00
6150;BME280;3106;42.670;23.318;2024-03-02T08:26:35;93921.38;;;9.02;100.00
6150;BME280;3106;42.670;23.318;2024-03-02T08:29:04;93936.78;;;9.08;100.00
6150;BME280;3106;42.670;23.318;2024-03-02T08:31:31;93931.38;;;9.20;100.00
6150;BME280;3106;42.670;23.318;2024-03-02T08:34:00;93936.25;;;9.34;100.00
6150;BME280;3106;42.670;23.318;2024-03-02T08:36:27;93937.47;;;9.36;100.00
6150;BME280;3106;42.670;23.318;2024-03-02T08:38:54;93937.91;;;9.38;100.00
6150;BME280;3106;42.670;23.318;2024-03-02T08:41:21;93933.44;;;9.42;100.00
6150;BME280;3106;42.670;23.318;2024-03-02T08:43:49;93890.34;;;9.25;100.00
6150;BME280;3106;42.670;23.318;2024-03-02T08:46:15;93922.31;;;9.40;100.00
6150;BME280;3106;42.670;23.318;2024-03-02T08:48:42;93936.22;;;9.65;100.00
6150;BME280;3106;42.670;23.318;2024-03-02T08:51:11;93939.56;;;9.77;100.00
6150;BME280;3106;42.670;23.318;2024-03-02T08:53:38;93944.09;;;9.92;100.00
6150;BME280;3106;42.670;23.318;2024-03-02T08:56:07;93935.78;;;9.97;100.00
6150;BME280;3106;42.670;23.318;2024-03-02T08:58:34;93943.56;;;10.02;100.00
6150;BME280;3106;42.670;23.318;2024-03-02T09:01:01;93937.56;;;10.24;100.00
6150;BME280;3106;42.670;23.318;2024-03-02T09:03:31;93934.91;;;10.43;100.00
6150;BME280;3106;42.670;23.318;2024-03-02T09:05:59;93935.69;;;10.66;100.00
6150;BME280;3106;42.670;23.318;2024-03-02T09:08:28;93935.91;;;10.76;100.00
6150;BME280;3106;42.670;23.318;2024-03-02T09:10:56;93940.97;;;11.04;100.00
6150;BME280;3106;42.670;23.318;2024-03-02T09:13:23;93949.28;;;11.18;100.00
6150;BME280;3106;42.670;23.318;2024-03-02T09:15:50;93946.00;;;11.28;100.00
6150;BME280;3106;42.670;23.318;2024-03-02T09:18:26;93925.75;;;11.08;100.00
6150;BME280;3106;42.670;23.318;2024-03-02T09:20:53;93958.31;;;11.32;100.00
6150;BME280;3106;42.670;23.318;2024-03-02T09:23:21;93886.44;;;10.86;100.00
6150;BME280;3106;42.670;23.318;2024-03-02T09:25:54;93950.53;;;11.24;100.00
6150;BME280;3106;42.670;23.318;2024-03-02T09:28:24;93955.09;;;11.23;100.00
6150;BME280;3106;42.670;23.318;2024-03-02T09:30:53;93957.00;;;11.23;100.00
6150;BME280;3106;42.670;23.318;2024-03-02T09:33:26;93913.59;;;10.88;100.00
6150;BME280;3106;42.670;23.318;2024-03-02T09:36:02;93957.03;;;11.04;100.00
6150;BME280;3106;42.670;23.318;2024-03-02T09:38:32;93949.25;;;10.95;100.00
6150;BME280;3106;42.670;23.318;2024-03-02T09:41:02;93958.88;;;11.00;100.00
6150;BME280;3106;42.670;23.318;2024-03-02T09:43:29;93958.03;;;10.96;100.00
6150;BME280;3106;42.670;23.318;2024-03-02T09:46:00;93962.13;;;10.90;100.00
6150;BME280;3106;42.670;23.318;2024-03-02T09:48:32;93960.50;;;10.85;100.00
6150;BME280;3106;42.670;23.318;2024-03-02T09:51:01;93954.28;;;10.78;100.00
6150;BME280;3106;42.670;23.318;2024-03-02T09:56:53;93963.00;;;10.75;100.00
6150;BME280;3106;42.670;23.318;2024-03-02T09:59:21;93918.44;;;10.41;100.00
6150;BME280;3106;42.670;23.318;2024-03-02T10:01:59;93957.75;;;10.59;100.00
6150;BME280;3106;42.670;23.318;2024-03-02T10:04:29;93949.94;;;10.51;100.00
6150;BME280;3106;42.670;23.318;2024-03-02T10:07:13;93961.38;;;10.51;100.00
6150;BME280;3106;42.670;23.318;2024-03-02T10:09:41;93923.63;;;10.34;100.00
6150;BME280;3106;42.670;23.318;2024-03-02T10:12:10;93921.75;;;10.35;100.00
6150;BME280;3106;42.670;23.318;2024-03-02T10:14:38;93932.75;;;10.33;100.00
6150;BME280;3106;42.670;23.318;2024-03-02T10:17:08;93918.56;;;10.10;100.00
6150;BME280;3106;42.670;23.318;2024-03-02T10:19:39;93949.88;;;10.29;100.00
6150;BME280;3106;42.670;23.318;2024-03-02T10:22:07;93961.31;;;10.29;100.00
6150;BME280;3106;42.670;23.318;2024-03-02T10:24:38;93952.53;;;10.29;100.00
6150;BME280;3106;42.670;23.318;2024-03-02T10:27:10;93953.16;;;10.22;100.00
6150;BME280;3106;42.670;23.318;2024-03-02T10:29:40;93962.22;;;10.18;100.00
6150;BME280;3106;42.670;23.318;2024-03-02T10:32:09;93952.94;;;10.12;100.00
6150;BME280;3106;42.670;23.318;2024-03-02T10:34:36;93933.06;;;10.09;100.00
6150;BME280;3106;42.670;23.318;2024-03-02T10:37:05;93958.50;;;10.22;100.00
6150;BME280;3106;42.670;23.318;2024-03-02T10:39:32;93937.53;;;10.05;100.00
6150;BME280;3106;42.670;23.318;2024-03-02T10:42:02;93958.91;;;10.05;100.00
6150;BME280;3106;42.670;23.318;2024-03-02T10:44:35;93927.63;;;9.90;100.00
6150;BME280;3106;42.670;23.318;2024-03-02T10:47:07;93950.97;;;10.09;100.00
6150;BME280;3106;42.670;23.318;2024-03-02T10:49:48;93933.56;;;9.99;100.00
6150;BME280;3106;42.670;23.318;2024-03-02T10:52:18;93917.16;;;9.82;100.00
6150;BME280;3106;42.670;23.318;2024-03-02T10:54:49;93909.50;;;9.80;100.00
6150;BME280;3106;42.670;23.318;2024-03-02T10:57:22;93934.19;;;10.08;100.00
6150;BME280;3106;42.670;23.318;2024-03-02T10:59:56;93940.63;;;10.07;100.00
6150;BME280;3106;42.670;23.318;2024-03-02T11:02:29;93895.47;;;9.83;100.00
6150;BME280;3106;42.670;23.318;2024-03-02T11:05:00;93943.94;;;10.20;100.00
6150;BME280;3106;42.670;23.318;2024-03-02T11:07:28;93939.09;;;10.25;100.00
6150;BME280;3106;42.670;23.318;2024-03-02T11:09:59;93933.84;;;10.29;100.00
6150;BME280;3106;42.670;23.318;2024-03-02T11:12:38;93933.13;;;10.32;100.00
6150;BME280;3106;42.670;23.318;2024-03-02T11:15:10;93935.88;;;10.16;100.00
6150;BME280;3106;42.670;23.318;2024-03-02T11:17:38;93925.47;;;10.11;100.00
6150;BME280;3106;42.670;23.318;2024-03-02T11:20:07;93927.19;;;10.04;100.00
6150;BME280;3106;42.670;23.318;2024-03-02T11:22:36;93929.19;;;9.91;100.00
6150;BME280;3106;42.670;23.318;2024-03-02T11:25:04;93929.19;;;9.91;100.00
6150;BME280;3106;42.670;23.318;2024-03-02T11:28:00;93934.91;;;9.90;100.00
6150;BME280;3106;42.670;23.318;2024-03-02T11:30:51;93928.84;;;9.93;100.00
6150;BME280;3106;42.670;23.318;2024-03-02T11:33:25;93924.28;;;9.93;100.00
6150;BME280;3106;42.670;23.318;2024-03-02T11:35:56;93924.69;;;9.95;100.00
6150;BME280;3106;42.670;23.318;2024-03-02T11:38:30;93921.84;;;10.04;100.00
6150;BME280;3106;42.670;23.318;2024-03-02T11:40:57;93923.50;;;9.93;100.00
6150;BME280;3106;42.670;23.318;2024-03-02T11:43:25;93890.84;;;9.65;100.00
6150;BME280;3106;42.670;23.318;2024-03-02T11:45:58;93941.13;;;9.97;100.00
6150;BME280;3106;42.670;23.318;2024-03-02T11:48:25;93917.38;;;9.92;100.00
6150;BME280;3106;42.670;23.318;2024-03-02T11:50:58;93932.38;;;9.97;100.00
6150;BME280;3106;42.670;23.318;2024-03-02T11:53:27;93933.41;;;9.92;100.00
6150;BME280;3106;42.670;23.318;2024-03-02T11:55:55;93921.72;;;9.81;100.00
6150;BME280;3106;42.670;23.318;2024-03-02T11:58:24;93924.81;;;9.83;100.00
6150;BME280;3106;42.670;23.318;2024-03-02T12:00:53;93902.75;;;9.67;100.00
6150;BME280;3106;42.670;23.318;2024-03-02T12:03:25;93930.31;;;9.90;100.00
6150;BME280;3106;42.670;23.318;2024-03-02T12:05:53;93901.63;;;9.68;100.00
6150;BME280;3106;42.670;23.318;2024-03-02T12:08:20;93928.06;;;9.92;100.00
6150;BME280;3106;42.670;23.318;2024-03-02T12:10:58;93933.34;;;9.89;100.00
6150;BME280;3106;42.670;23.318;2024-03-02T12:13:26;93930.88;;;9.99;100.00
6150;BME280;3106;42.670;23.318;2024-03-02T12:15:56;93925.22;;;10.01;100.00
6150;BME280;3106;42.670;23.318;2024-03-02T12:18:25;93930.28;;;10.06;100.00
6150;BME280;3106;42.670;23.318;2024-03-02T12:20:52;93923.13;;;10.10;100.00
6150;BME280;3106;42.670;23.318;2024-03-02T12:23:23;93928.28;;;10.18;100.00
6150;BME280;3106;42.670;23.318;2024-03-02T12:25:50;93927.06;;;10.16;100.00
6150;BME280;3106;42.670;23.318;2024-03-02T12:28:17;93928.88;;;10.12;100.00
6150;BME280;3106;42.670;23.318;2024-03-02T12:30:45;93914.41;;;10.13;100.00
6150;BME280;3106;42.670;23.318;2024-03-02T12:33:13;93920.25;;;10.18;100.00
6150;BME280;3106;42.670;23.318;2024-03-02T12:35:42;93919.63;;;10.25;100.00
6150;BME280;3106;42.670;23.318;2024-03-02T12:38:09;93923.63;;;10.34;100.00
6150;BME280;3106;42.670;23.318;2024-03-02T12:40:38;93913.78;;;10.38;100.00
6150;BME280;3106;42.670;23.318;2024-03-02T12:43:05;93917.22;;;10.57;100.00
6150;BME280;3106;42.670;23.318;2024-03-02T12:45:32;93931.84;;;10.63;100.00
6150;BME280;3106;42.670;23.318;2024-03-02T12:48:00;93921.09;;;10.60;100.00
6150;BME280;3106;42.670;23.318;2024-03-02T12:50:28;93926.84;;;10.62;100.00
6150;BME280;3106;42.670;23.318;2024-03-02T12:52:56;93932.31;;;10.69;100.00
6150;BME280;3106;42.670;23.318;2024-03-02T12:55:24;93924.72;;;10.71;100.00
6150;BME280;3106;42.670;23.318;2024-03-02T12:57:51;93927.06;;;10.72;100.00
6150;BME280;3106;42.670;23.318;2024-03-02T13:00:20;93931.69;;;10.75;100.00
6150;BME280;3106;42.670;23.318;2024-03-02T13:02:48;93934.44;;;10.79;100.00
6150;BME280;3106;42.670;23.318;2024-03-02T13:05:16;93935.63;;;10.81;100.00
6150;BME280;3106;42.670;23.318;2024-03-02T13:07:47;93929.84;;;10.79;100.00
6150;BME280;3106;42.670;23.318;2024-03-02T13:10:16;93933.03;;;10.85;100.00
6150;BME280;3106;42.670;23.318;2024-03-02T13:12:43;93933.72;;;10.82;100.00
6150;BME280;3106;42.670;23.318;2024-03-02T13:15:10;93937.44;;;10.77;100.00
6150;BME280;3106;42.670;23.318;2024-03-02T13:17:38;93935.00;;;10.69;100.00
6150;BME280;3106;42.670;23.318;2024-03-02T13:20:06;93934.53;;;10.63;100.00